createdAt,value
2022-08-26T00:00:08.258Z,95715.91
2022-08-26T00:02:40.620Z,95681.22
2022-08-26T00:05:09.532Z,95700.44
2022-08-26T00:07:37.190Z,95700.78
2022-08-26T00:10:07.670Z,95632.69
2022-08-26T00:12:37.379Z,95675.44
2022-08-26T00:15:07.421Z,95586.88
2022-08-26T00:17:35.465Z,95676.25
2022-08-26T00:20:04.037Z,95600.91
2022-08-26T00:22:31.800Z,95696.13
2022-08-26T00:24:59.502Z,95697.59
2022-08-26T00:27:28.522Z,95623.63
2022-08-26T00:29:56.236Z,95694.50
2022-08-26T00:32:24.502Z,95691.13
2022-08-26T00:34:53.835Z,95697.94
2022-08-26T00:37:21.891Z,95620.16
2022-08-26T00:39:50.197Z,95701.78
2022-08-26T00:42:17.922Z,95672.38
2022-08-26T00:44:47.126Z,95707.06
2022-08-26T00:47:23.919Z,95685.94
2022-08-26T00:49:52.518Z,95693.28
2022-08-26T00:52:23.075Z,95701.22
2022-08-26T00:54:54.439Z,95705.59
2022-08-26T00:57:23.923Z,95686.81
2022-08-26T00:59:57.807Z,95608.22
2022-08-26T01:02:26.268Z,95686.47
2022-08-26T01:04:59.904Z,95703.13
2022-08-26T01:07:30.167Z,95574.00
2022-08-26T01:10:01.249Z,95687.91
2022-08-26T01:12:32.803Z,95678.81
2022-08-26T01:15:03.134Z,95628.78
2022-08-26T01:17:33.836Z,95688.50
2022-08-26T01:20:07.607Z,95695.06
2022-08-26T01:22:47.077Z,95696.19
2022-08-26T01:25:15.824Z,95674.47
2022-08-26T01:27:44.417Z,95681.25
2022-08-26T01:30:17.736Z,95709.75
2022-08-26T01:32:46.650Z,95698.88
2022-08-26T01:35:14.486Z,95686.97
2022-08-26T01:37:44.299Z,95570.78
2022-08-26T01:40:17.541Z,95676.16
2022-08-26T01:42:46.726Z,95627.25
2022-08-26T01:45:19.468Z,95618.91
2022-08-26T01:47:48.485Z,95701.66
2022-08-26T01:50:28.221Z,95655.16
2022-08-26T01:53:03.279Z,95677.84
2022-08-26T01:55:34.202Z,95685.53
2022-08-26T01:58:05.789Z,95674.06
2022-08-26T02:00:34.833Z,95667.03
2022-08-26T02:03:17.596Z,95703.00
2022-08-26T02:05:48.761Z,95634.59
2022-08-26T02:08:24.874Z,95687.75
2022-08-26T02:10:54.797Z,95705.41
2022-08-26T02:13:23.683Z,95688.28
2022-08-26T02:15:52.771Z,95699.09
2022-08-26T02:18:20.635Z,95695.88
2022-08-26T02:20:53.751Z,95698.66
2022-08-26T02:23:23.947Z,95696.53
2022-08-26T02:25:57.883Z,95700.34
2022-08-26T02:28:29.503Z,95695.66
2022-08-26T02:30:57.413Z,95683.19
2022-08-26T02:33:25.543Z,95591.13
2022-08-26T02:35:53.284Z,95680.75
2022-08-26T02:38:23.328Z,95628.47
2022-08-26T02:40:51.029Z,95693.66
2022-08-26T02:43:18.734Z,95700.53
2022-08-26T02:45:51.847Z,95689.06
2022-08-26T02:48:21.453Z,95660.81
2022-08-26T02:50:49.532Z,95677.41
2022-08-26T02:53:20.046Z,95658.41
2022-08-26T02:55:54.062Z,95692.06
2022-08-26T02:58:22.168Z,95683.19
2022-08-26T03:00:52.512Z,95687.19
2022-08-26T03:03:23.585Z,95680.31
2022-08-26T03:05:51.540Z,95592.00
2022-08-26T03:08:19.252Z,95659.03
2022-08-26T03:10:48.114Z,95655.50
2022-08-26T03:13:18.552Z,95681.94
2022-08-26T03:15:47.683Z,95640.91
2022-08-26T03:18:16.023Z,95673.84
2022-08-26T03:20:44.019Z,95668.06
2022-08-26T03:23:12.417Z,95659.16
2022-08-26T03:25:40.128Z,95660.72
2022-08-26T03:28:07.856Z,95677.84
2022-08-26T03:30:45.353Z,95606.44
2022-08-26T03:33:14.167Z,95683.06
2022-08-26T03:35:45.139Z,95689.06
2022-08-26T03:38:12.942Z,95662.59
2022-08-26T03:40:40.953Z,95666.94
2022-08-26T03:43:09.574Z,95595.56
2022-08-26T03:45:39.474Z,95684.53
2022-08-26T03:48:09.047Z,95681.19
2022-08-26T03:50:36.986Z,95658.28
2022-08-26T03:53:07.538Z,95680.63
2022-08-26T03:55:41.199Z,95672.94
2022-08-26T03:58:08.836Z,95673.72
2022-08-26T04:00:36.933Z,95677.63
2022-08-26T04:03:06.082Z,95673.84
2022-08-26T04:05:38.453Z,95672.28
2022-08-26T04:08:06.448Z,95670.75
2022-08-26T04:10:34.053Z,95676.63
2022-08-26T04:13:02.440Z,95633.59
2022-08-26T04:15:30.360Z,95633.69
2022-08-26T04:17:58.249Z,95659.16
2022-08-26T04:20:27.976Z,95665.59
2022-08-26T04:22:55.816Z,95677.09
2022-08-26T04:25:24.331Z,95672.63
2022-08-26T04:27:52.282Z,95659.41
2022-08-26T04:30:21.198Z,95532.28
2022-08-26T04:32:49.555Z,95646.25
2022-08-26T04:35:17.441Z,95664.19
2022-08-26T04:37:46.552Z,95670.63
2022-08-26T04:40:14.658Z,95664.50
2022-08-26T04:42:42.587Z,95592.91
2022-08-26T04:45:11.899Z,95569.00
2022-08-26T04:47:39.584Z,95676.97
2022-08-26T04:50:09.030Z,95627.25
2022-08-26T04:52:38.694Z,95680.81
2022-08-26T04:55:08.753Z,95668.06
2022-08-26T04:57:36.608Z,95685.72
2022-08-26T05:00:06.029Z,95686.63
2022-08-26T05:02:34.223Z,95688.50
2022-08-26T05:05:01.966Z,95673.72
2022-08-26T05:07:30.201Z,95689.88
2022-08-26T05:10:00.188Z,95692.19
2022-08-26T05:12:29.329Z,95660.81
2022-08-26T05:14:57.270Z,95679.84
2022-08-26T05:17:25.741Z,95698.75
2022-08-26T05:19:53.598Z,95703.84
2022-08-26T05:22:21.222Z,95706.53
2022-08-26T05:24:49.289Z,95698.06
2022-08-26T05:27:16.925Z,95616.69
2022-08-26T05:29:46.736Z,95586.78
2022-08-26T05:32:22.039Z,95701.00
2022-08-26T05:34:49.709Z,95655.50
2022-08-26T05:37:21.074Z,95706.09
2022-08-26T05:39:51.015Z,95700.09
2022-08-26T05:42:19.893Z,95684.84
2022-08-26T05:44:53.984Z,95705.22
2022-08-26T05:47:24.165Z,95695.66
2022-08-26T05:49:52.027Z,95711.31
2022-08-26T05:52:19.946Z,95713.56
2022-08-26T05:54:47.845Z,95713.66
2022-08-26T05:57:15.667Z,95708.34
2022-08-26T05:59:44.054Z,95712.56
2022-08-26T06:02:14.982Z,95717.66
2022-08-26T06:04:43.329Z,95680.75
2022-08-26T06:07:11.791Z,95709.56
2022-08-26T06:09:41.459Z,95716.44
2022-08-26T06:12:09.220Z,95630.16
2022-08-26T06:14:36.984Z,95715.75
2022-08-26T06:17:04.644Z,95721.22
2022-08-26T06:19:34.419Z,95713.63
2022-08-26T06:22:23.564Z,95714.41
2022-08-26T06:25:08.941Z,95725.19
2022-08-26T06:27:37.734Z,95721.06
2022-08-26T06:30:06.428Z,95720.72
2022-08-26T06:32:34.062Z,95709.84
2022-08-26T06:35:03.109Z,95721.03
2022-08-26T06:37:30.748Z,95709.59
2022-08-26T06:39:58.657Z,95715.78
2022-08-26T06:42:26.368Z,95722.19
2022-08-26T06:44:54.274Z,95715.63
2022-08-26T06:47:22.143Z,95719.38
2022-08-26T06:49:50.344Z,95710.84
2022-08-26T06:52:24.578Z,95723.06
2022-08-26T06:54:52.372Z,95718.03
2022-08-26T06:57:20.761Z,95722.25
2022-08-26T06:59:51.267Z,95727.28
2022-08-26T07:02:19.532Z,95726.16
2022-08-26T07:04:48.474Z,95728.56
2022-08-26T07:07:21.652Z,95723.34
2022-08-26T07:09:52.620Z,95724.31
2022-08-26T07:12:20.527Z,95731.41
2022-08-26T07:14:48.415Z,95731.94
2022-08-26T07:17:16.081Z,95732.03
2022-08-26T07:19:44.133Z,95713.47
2022-08-26T07:22:11.939Z,95739.88
2022-08-26T07:24:42.356Z,95739.66
2022-08-26T07:27:13.018Z,95716.84
2022-08-26T07:29:42.309Z,95752.88
2022-08-26T07:32:11.538Z,95748.81
2022-08-26T07:34:39.678Z,95728.06
2022-08-26T07:37:09.545Z,95746.03
2022-08-26T07:39:37.613Z,95702.09
2022-08-26T07:42:10.679Z,95743.88
2022-08-26T07:44:39.632Z,95734.72
2022-08-26T07:47:24.269Z,95708.06
2022-08-26T07:49:55.274Z,95754.53
2022-08-26T07:52:26.699Z,95749.84
2022-08-26T07:54:55.927Z,95755.50
2022-08-26T07:57:25.336Z,95758.50
2022-08-26T07:59:54.951Z,95753.19
2022-08-26T08:02:25.080Z,95702.38
2022-08-26T08:04:54.483Z,95674.34
2022-08-26T08:07:38.500Z,95760.28
2022-08-26T08:10:13.402Z,95729.69
2022-08-26T08:12:43.822Z,95751.72
2022-08-26T08:15:13.788Z,95750.03
2022-08-26T08:17:42.820Z,95677.69
2022-08-26T08:20:12.411Z,95746.53
2022-08-26T08:22:40.285Z,95748.31
2022-08-26T08:25:10.532Z,95731.84
2022-08-26T08:27:42.527Z,95746.19
2022-08-26T08:30:13.779Z,95746.19
2022-08-26T08:32:43.463Z,95742.81
2022-08-26T08:35:12.552Z,95747.31
2022-08-26T08:37:41.005Z,95745.00
2022-08-26T08:40:10.051Z,95746.19
2022-08-26T08:42:45.331Z,95747.81
2022-08-26T08:45:21.097Z,95679.81
2022-08-26T08:47:54.034Z,95664.44
2022-08-26T08:50:27.308Z,95644.41
2022-08-26T08:53:08.825Z,95741.06
2022-08-26T08:55:45.516Z,95657.75
2022-08-26T08:58:19.213Z,95744.78
2022-08-26T09:00:52.370Z,95745.78
2022-08-26T09:03:38.630Z,95724.34
2022-08-26T09:06:16.890Z,95741.34
2022-08-26T09:08:50.027Z,95746.28
2022-08-26T09:11:19.553Z,95744.13
2022-08-26T09:13:50.771Z,95741.22
2022-08-26T09:16:23.171Z,95738.06
2022-08-26T09:19:04.849Z,95735.50
2022-08-26T09:21:33.686Z,95711.94
2022-08-26T09:24:02.038Z,95735.06
2022-08-26T09:26:42.329Z,95707.63
2022-08-26T09:31:51.049Z,95722.44
2022-08-26T09:34:21.906Z,95714.91
2022-08-26T09:36:51.308Z,95713.44
2022-08-26T09:39:33.422Z,95731.81
2022-08-26T09:42:10.228Z,95726.75
2022-08-26T09:44:54.366Z,95701.53
2022-08-26T09:47:28.505Z,95721.09
2022-08-26T09:50:04.236Z,95716.56
2022-08-26T09:52:37.065Z,95718.16
2022-08-26T09:55:11.271Z,95710.81
2022-08-26T09:57:47.200Z,95703.53
2022-08-26T10:00:27.645Z,95697.13
2022-08-26T10:02:58.240Z,95695.19
2022-08-26T10:05:44.899Z,95664.50
2022-08-26T10:08:23.890Z,95686.13
2022-08-26T10:10:53.144Z,95678.75
2022-08-26T10:13:26.770Z,95676.81
2022-08-26T10:16:05.683Z,95672.50
2022-08-26T10:18:39.832Z,95673.63
2022-08-26T10:21:11.948Z,95581.66
2022-08-26T10:23:43.374Z,95578.19
2022-08-26T10:26:17.297Z,95627.13
2022-08-26T10:28:52.380Z,95658.59
2022-08-26T10:31:28.438Z,95610.09
2022-08-26T10:34:00.203Z,95650.13
2022-08-26T10:37:13.948Z,95650.59
2022-08-26T10:39:43.810Z,95564.97
2022-08-26T10:42:22.471Z,95566.50
2022-08-26T10:44:54.022Z,95614.94
2022-08-26T10:47:31.662Z,95635.09
2022-08-26T10:50:02.986Z,95591.06
2022-08-26T10:52:45.722Z,95642.59
2022-08-26T10:55:19.612Z,95645.69
2022-08-26T10:58:06.594Z,95568.50
2022-08-26T11:01:02.234Z,95610.72
2022-08-26T11:03:42.370Z,95519.59
2022-08-26T11:06:25.631Z,95638.59
2022-08-26T11:08:54.774Z,95610.81
2022-08-26T11:11:46.907Z,95625.44
2022-08-26T11:14:46.226Z,95619.59
2022-08-26T11:17:55.296Z,95621.41
2022-08-26T11:20:35.159Z,95622.16
2022-08-26T11:23:36.200Z,95614.47
2022-08-26T11:26:43.257Z,95617.56
2022-08-26T11:29:12.991Z,95569.78
2022-08-26T11:31:56.692Z,95607.69
2022-08-26T11:34:51.841Z,95599.94
2022-08-26T11:39:57.150Z,95613.47
2022-08-26T11:42:36.002Z,95600.72
2022-08-26T11:45:14.338Z,95598.41
2022-08-26T11:47:42.158Z,95584.13
2022-08-26T11:50:13.559Z,95588.72
2022-08-26T11:52:41.260Z,95589.81
2022-08-26T11:55:11.763Z,95525.06
2022-08-26T11:57:46.361Z,95587.00
2022-08-26T12:00:22.277Z,95556.50
2022-08-26T12:02:51.298Z,95576.53
2022-08-26T12:05:27.216Z,95560.31
2022-08-26T12:08:02.335Z,95562.13
2022-08-26T12:10:33.553Z,95567.88
2022-08-26T12:13:04.719Z,95572.50
2022-08-26T12:15:35.453Z,95551.28
2022-08-26T12:18:18.482Z,95536.28
2022-08-26T12:20:56.695Z,95517.81
2022-08-26T12:23:26.854Z,95558.34
2022-08-26T12:26:05.260Z,95547.19
2022-08-26T12:28:35.412Z,95545.38
2022-08-26T12:31:05.592Z,95548.06
2022-08-26T12:33:35.905Z,95546.91
2022-08-26T12:36:05.171Z,95541.88
2022-08-26T12:38:34.981Z,95508.75
2022-08-26T12:41:02.761Z,95538.38
2022-08-26T12:43:43.405Z,95533.31
2022-08-26T12:46:13.587Z,95480.84
2022-08-26T12:48:44.103Z,95527.06
2022-08-26T12:51:27.862Z,95512.53
2022-08-26T12:53:59.049Z,95494.00
2022-08-26T12:56:30.906Z,95495.97
2022-08-26T12:59:06.533Z,95433.97
2022-08-26T13:01:40.453Z,95528.72
2022-08-26T13:04:08.366Z,95472.81
2022-08-26T13:06:36.057Z,95441.28
2022-08-26T13:09:06.512Z,95502.50
2022-08-26T13:11:36.394Z,95498.25
2022-08-26T13:14:07.438Z,95492.91
2022-08-26T13:16:36.357Z,95507.88
2022-08-26T13:19:10.248Z,95498.59
2022-08-26T13:21:42.910Z,95463.53
2022-08-26T13:24:13.206Z,95494.72
2022-08-26T13:26:41.660Z,95472.34
2022-08-26T13:29:11.227Z,95477.59
2022-08-26T13:31:41.921Z,95467.19
2022-08-26T13:34:11.713Z,95489.56
2022-08-26T13:36:39.813Z,95466.09
2022-08-26T13:39:07.787Z,95490.41
2022-08-26T13:41:36.240Z,95494.69
2022-08-26T13:44:04.470Z,95439.97
2022-08-26T13:46:33.902Z,95481.91
2022-08-26T13:49:02.104Z,95486.88
2022-08-26T13:51:31.312Z,95471.44
2022-08-26T13:53:59.506Z,95449.50
2022-08-26T13:56:29.482Z,95489.88
2022-08-26T13:58:57.745Z,95422.88
2022-08-26T14:01:25.778Z,95429.78
2022-08-26T14:03:54.982Z,95464.06
2022-08-26T14:06:23.002Z,95437.09
2022-08-26T14:08:50.819Z,95478.63
2022-08-26T14:11:20.046Z,95471.31
2022-08-26T14:13:47.750Z,95443.53
2022-08-26T14:16:22.362Z,95407.34
2022-08-26T14:18:50.997Z,95410.47
2022-08-26T14:21:20.562Z,95399.00
2022-08-26T14:23:48.313Z,95427.44
2022-08-26T14:26:21.432Z,95405.34
2022-08-26T14:28:57.456Z,95461.13
2022-08-26T14:31:26.839Z,95418.13
2022-08-26T14:33:54.783Z,95473.47
2022-08-26T14:36:31.329Z,95451.13
2022-08-26T14:39:02.266Z,95475.78
2022-08-26T14:41:30.823Z,95382.53
2022-08-26T14:44:01.600Z,95452.50
2022-08-26T14:46:32.430Z,95466.75
2022-08-26T14:49:05.235Z,95465.44
2022-08-26T14:51:36.395Z,95468.59
2022-08-26T14:54:13.095Z,95459.31
2022-08-26T14:56:44.415Z,95467.03
2022-08-26T14:59:12.818Z,95426.97
2022-08-26T15:01:40.878Z,95453.16
2022-08-26T15:04:08.614Z,95449.69
2022-08-26T15:06:38.142Z,95441.16
2022-08-26T15:09:06.837Z,95436.59
2022-08-26T15:11:34.515Z,95445.47
2022-08-26T15:14:02.570Z,95410.91
2022-08-26T15:16:30.694Z,95446.72
2022-08-26T15:18:58.485Z,95426.03
2022-08-26T15:21:27.008Z,95433.81
2022-08-26T15:23:56.006Z,95442.22
2022-08-26T15:26:24.220Z,95436.44
2022-08-26T15:28:53.006Z,95433.03
2022-08-26T15:31:26.590Z,95444.22
2022-08-26T15:33:54.224Z,95429.56
2022-08-26T15:36:21.902Z,95428.78
2022-08-26T15:38:49.536Z,95411.47
2022-08-26T15:41:18.553Z,95431.22
2022-08-26T15:43:46.218Z,95409.56
2022-08-26T15:46:14.624Z,95421.47
2022-08-26T15:48:42.617Z,95408.78
2022-08-26T15:51:21.616Z,95410.31
2022-08-26T15:53:50.473Z,95419.22
2022-08-26T15:56:19.949Z,95349.97
2022-08-26T15:58:47.648Z,95394.63
2022-08-26T16:01:23.991Z,95411.47
2022-08-26T16:03:55.796Z,95398.03
2022-08-26T16:06:25.959Z,95382.28
2022-08-26T16:08:54.241Z,95370.31
2022-08-26T16:11:23.558Z,95399.53
2022-08-26T16:13:51.484Z,95348.06
2022-08-26T16:16:20.352Z,95400.41
2022-08-26T16:18:48.427Z,95398.94
2022-08-26T16:21:17.282Z,95406.19
2022-08-26T16:23:45.568Z,95379.69
2022-08-26T16:26:16.312Z,95334.72
2022-08-26T16:28:45.508Z,95349.78
2022-08-26T16:31:14.141Z,95399.81
2022-08-26T16:33:41.922Z,95416.72
2022-08-26T16:36:10.818Z,95410.59
2022-08-26T16:38:39.619Z,95412.16
2022-08-26T16:41:08.682Z,95413.75
2022-08-26T16:43:36.787Z,95423.00
2022-08-26T16:46:08.116Z,95389.50
2022-08-26T16:48:36.386Z,95356.81
2022-08-26T16:51:04.219Z,95371.81
2022-08-26T16:53:33.288Z,95425.38
2022-08-26T16:56:00.987Z,95395.72
2022-08-26T16:58:28.732Z,95415.41
2022-08-26T17:00:57.320Z,95425.06
2022-08-26T17:03:27.518Z,95398.09
2022-08-26T17:05:55.211Z,95376.25
2022-08-26T17:08:27.724Z,95387.00
2022-08-26T17:10:56.819Z,95423.97
2022-08-26T17:13:34.701Z,95395.50
2022-08-26T17:16:05.306Z,95364.72
2022-08-26T17:18:35.166Z,95425.56
2022-08-26T17:21:04.778Z,95416.38
2022-08-26T17:23:33.248Z,95384.78
2022-08-26T17:26:01.011Z,95388.63
2022-08-26T17:28:28.727Z,95411.00
2022-08-26T17:30:57.254Z,95429.13
2022-08-26T17:33:25.355Z,95431.03
2022-08-26T17:35:54.875Z,95436.81
2022-08-26T17:38:23.207Z,95440.31
2022-08-26T17:40:51.217Z,95446.47
2022-08-26T17:43:19.781Z,95448.78
2022-08-26T17:45:48.008Z,95360.53
2022-08-26T17:48:16.081Z,95460.38
2022-08-26T17:50:49.336Z,95452.66
2022-08-26T17:53:19.452Z,95381.66
2022-08-26T17:55:47.657Z,95462.69
2022-08-26T17:58:16.204Z,95452.56
2022-08-26T18:00:44.995Z,95393.97
2022-08-26T18:03:13.158Z,95453.34
2022-08-26T18:05:41.185Z,95473.41
2022-08-26T18:08:09.328Z,95477.25
2022-08-26T18:10:38.502Z,95382.00
2022-08-26T18:13:06.592Z,95378.09
2022-08-26T18:15:34.588Z,95465.66
2022-08-26T18:18:02.319Z,95380.03
2022-08-26T18:20:30.135Z,95471.81
2022-08-26T18:22:57.895Z,95474.50
2022-08-26T18:25:25.874Z,95462.53
2022-08-26T18:27:54.977Z,95469.09
2022-08-26T18:30:23.714Z,95470.97
2022-08-26T18:32:52.886Z,95473.69
2022-08-26T18:35:21.969Z,95478.25
2022-08-26T18:37:49.824Z,95492.94
2022-08-26T18:40:17.762Z,95377.84
2022-08-26T18:42:45.722Z,95539.50
2022-08-26T18:45:18.671Z,95558.75
2022-08-26T18:47:46.398Z,95527.22
2022-08-26T18:50:14.612Z,95550.66
2022-08-26T18:52:42.316Z,95545.13
2022-08-26T18:55:10.800Z,95576.88
2022-08-26T18:57:38.493Z,95575.72
2022-08-26T19:00:07.779Z,95589.81
2022-08-26T19:02:36.951Z,95532.38
2022-08-26T19:05:08.037Z,95596.44
2022-08-26T19:07:39.636Z,95638.50
2022-08-26T19:10:08.376Z,95689.31
2022-08-26T19:12:36.337Z,95540.25
2022-08-26T19:15:04.284Z,95597.91
2022-08-26T19:17:32.022Z,95638.56
2022-08-26T19:20:01.078Z,95543.25
2022-08-26T19:22:28.948Z,95628.03
2022-08-26T19:24:56.741Z,95624.38
2022-08-26T19:27:24.536Z,95438.34
2022-08-26T19:29:52.229Z,95517.56
2022-08-26T19:32:24.129Z,95577.28
2022-08-26T19:34:52.034Z,95579.50
2022-08-26T19:37:21.804Z,95563.56
2022-08-26T19:39:49.707Z,95494.59
2022-08-26T19:42:18.047Z,95538.44
2022-08-26T19:45:03.724Z,95527.28
2022-08-26T19:47:31.443Z,95527.09
2022-08-26T19:49:59.199Z,95564.28
2022-08-26T19:52:30.050Z,95523.84
2022-08-26T19:54:58.173Z,95554.16
2022-08-26T19:57:25.935Z,95511.94
2022-08-26T19:59:53.662Z,95479.31
2022-08-26T20:02:21.446Z,95522.06
2022-08-26T20:04:49.176Z,95444.72
2022-08-26T20:07:18.859Z,95495.13
2022-08-26T20:09:48.949Z,95499.88
2022-08-26T20:12:17.345Z,95529.06
2022-08-26T20:14:45.386Z,95502.25
2022-08-26T20:17:13.204Z,95530.69
2022-08-26T20:19:58.927Z,95514.88
2022-08-26T20:22:26.662Z,95526.63
2022-08-26T20:24:55.693Z,95533.31
2022-08-26T20:27:37.912Z,95537.41
2022-08-26T20:30:09.251Z,95546.19
2022-08-26T20:32:38.379Z,95544.41
2022-08-26T20:35:08.187Z,95548.97
2022-08-26T20:37:35.951Z,95558.56
2022-08-26T20:40:08.358Z,95554.88
2022-08-26T20:42:36.166Z,95556.31
2022-08-26T20:45:04.221Z,95545.53
2022-08-26T20:47:31.978Z,95559.31
2022-08-26T20:49:59.860Z,95559.09
2022-08-26T20:52:27.886Z,95523.75
2022-08-26T20:54:55.687Z,95461.22
2022-08-26T20:57:24.792Z,95593.34
2022-08-26T20:59:52.494Z,95595.00
2022-08-26T21:02:20.276Z,95447.47
2022-08-26T21:04:48.030Z,95582.56
2022-08-26T21:07:15.747Z,95596.03
2022-08-26T21:09:45.500Z,95577.13
2022-08-26T21:12:13.569Z,95604.69
2022-08-26T21:14:44.768Z,95513.53
2022-08-26T21:17:15.499Z,95603.34
2022-08-26T21:19:43.220Z,95576.22
2022-08-26T21:22:12.317Z,95603.66
2022-08-26T21:24:40.113Z,95529.94
2022-08-26T21:27:07.995Z,95509.44
2022-08-26T21:29:36.734Z,95644.16
2022-08-26T21:32:06.439Z,95570.94
2022-08-26T21:34:34.174Z,95631.25
2022-08-26T21:37:02.044Z,95642.94
2022-08-26T21:39:36.665Z,95578.50
2022-08-26T21:42:07.703Z,95553.66
2022-08-26T21:44:35.376Z,95542.78
2022-08-26T21:47:03.443Z,95561.00
2022-08-26T21:49:32.601Z,95613.00
2022-08-26T21:52:01.595Z,95643.97
2022-08-26T21:54:29.359Z,95625.66
2022-08-26T21:56:57.243Z,95653.28
2022-08-26T21:59:25.931Z,95636.69
2022-08-26T22:01:54.511Z,95656.19
2022-08-26T22:04:22.398Z,95574.78
2022-08-26T22:06:54.279Z,95626.44
2022-08-26T22:09:24.723Z,95584.59
2022-08-26T22:11:53.381Z,95585.13
2022-08-26T22:14:23.949Z,95606.28
2022-08-26T22:16:54.894Z,95556.06
2022-08-26T22:19:23.655Z,95582.19
2022-08-26T22:21:55.888Z,95640.78
2022-08-26T22:24:26.388Z,95664.47
2022-08-26T22:26:54.974Z,95650.78
2022-08-26T22:29:24.301Z,95678.28
2022-08-26T22:31:52.456Z,95683.72
2022-08-26T22:34:21.094Z,95681.06
2022-08-26T22:36:49.995Z,95670.16
2022-08-26T22:39:22.087Z,95677.63
2022-08-26T22:41:50.123Z,95671.06
2022-08-26T22:44:19.023Z,95604.66
2022-08-26T22:46:48.228Z,95645.59
2022-08-26T22:49:16.876Z,95654.50
2022-08-26T22:51:45.253Z,95638.47
2022-08-26T22:54:13.113Z,95563.88
2022-08-26T22:56:42.629Z,95636.91
2022-08-26T22:59:10.918Z,95613.34
2022-08-26T23:01:40.759Z,95629.25
2022-08-26T23:04:08.658Z,95611.56
2022-08-26T23:06:40.428Z,95584.00
2022-08-26T23:09:08.992Z,95666.16
2022-08-26T23:11:38.566Z,95630.47
2022-08-26T23:14:11.979Z,95604.03
2022-08-26T23:16:41.745Z,95673.50
2022-08-26T23:19:10.732Z,95674.50
2022-08-26T23:21:38.564Z,95684.63
2022-08-26T23:24:07.200Z,95650.72
2022-08-26T23:26:35.414Z,95668.28
2022-08-26T23:29:03.669Z,95616.56
2022-08-26T23:31:33.310Z,95638.59
2022-08-26T23:34:18.599Z,95551.06
2022-08-26T23:36:47.234Z,95647.84
2022-08-26T23:39:15.122Z,95659.03
2022-08-26T23:41:43.247Z,95660.59
2022-08-26T23:44:12.244Z,95658.25
2022-08-26T23:46:41.303Z,95661.16
2022-08-26T23:49:09.130Z,95606.34
2022-08-26T23:51:54.367Z,95616.03
2022-08-26T23:54:22.107Z,95636.94
2022-08-26T23:56:50.469Z,95565.13
2022-08-26T23:59:18.253Z,95558.22
